sensor_id;sensor_type;location;lat;lon;timestamp;P1;durP1;ratioP1;P2;durP2;ratioP2
3083;SDS011;1552;51.952;7.618;2022-12-01T00:01:33;42.53;;;20.57;;
3083;SDS011;1552;51.952;7.618;2022-12-01T00:03:59;49.73;;;21.70;;
3083;SDS011;1552;51.952;7.618;2022-12-01T00:06:25;52.30;;;21.67;;
3083;SDS011;1552;51.952;7.618;2022-12-01T00:08:51;48.10;;;20.03;;
3083;SDS011;1552;51.952;7.618;2022-12-01T00:11:36;53.37;;;21.03;;
3083;SDS011;1552;51.952;7.618;2022-12-01T00:14:03;53.33;;;22.00;;
3083;SDS011;1552;51.952;7.618;2022-12-01T00:16:29;57.10;;;21.83;;
3083;SDS011;1552;51.952;7.618;2022-12-01T00:18:56;57.17;;;22.97;;
3083;SDS011;1552;51.952;7.618;2022-12-01T00:21:23;60.47;;;22.90;;
3083;SDS011;1552;51.952;7.618;2022-12-01T00:23:51;64.67;;;23.17;;
3083;SDS011;1552;51.952;7.618;2022-12-01T00:26:17;61.07;;;23.30;;
3083;SDS011;1552;51.952;7.618;2022-12-01T00:28:48;57.87;;;23.03;;
3083;SDS011;1552;51.952;7.618;2022-12-01T00:31:14;52.10;;;21.17;;
3083;SDS011;1552;51.952;7.618;2022-12-01T00:33:41;58.33;;;22.50;;
3083;SDS011;1552;51.952;7.618;2022-12-01T00:36:07;57.27;;;22.30;;
3083;SDS011;1552;51.952;7.618;2022-12-01T00:38:34;60.17;;;23.60;;
3083;SDS011;1552;51.952;7.618;2022-12-01T00:41:01;61.57;;;23.17;;
3083;SDS011;1552;51.952;7.618;2022-12-01T00:43:27;58.50;;;22.73;;
3083;SDS011;1552;51.952;7.618;2022-12-01T00:45:55;55.57;;;22.40;;
3083;SDS011;1552;51.952;7.618;2022-12-01T00:48:22;62.00;;;23.40;;
3083;SDS011;1552;51.952;7.618;2022-12-01T00:50:48;58.63;;;23.83;;
3083;SDS011;1552;51.952;7.618;2022-12-01T00:53:15;56.50;;;22.97;;
3083;SDS011;1552;51.952;7.618;2022-12-01T00:55:41;56.93;;;23.77;;
3083;SDS011;1552;51.952;7.618;2022-12-01T00:58:07;59.40;;;22.43;;
3083;SDS011;1552;51.952;7.618;2022-12-01T01:00:34;61.63;;;23.30;;
3083;SDS011;1552;51.952;7.618;2022-12-01T01:03:04;54.17;;;21.57;;
3083;SDS011;1552;51.952;7.618;2022-12-01T01:05:33;50.77;;;21.30;;
3083;SDS011;1552;51.952;7.618;2022-12-01T01:08:00;54.23;;;22.60;;
3083;SDS011;1552;51.952;7.618;2022-12-01T01:10:26;55.60;;;22.30;;
3083;SDS011;1552;51.952;7.618;2022-12-01T01:12:52;44.27;;;21.10;;
3083;SDS011;1552;51.952;7.618;2022-12-01T01:15:18;51.93;;;20.90;;
3083;SDS011;1552;51.952;7.618;2022-12-01T01:17:45;44.23;;;20.03;;
3083;SDS011;1552;51.952;7.618;2022-12-01T01:20:13;47.70;;;20.10;;
3083;SDS011;1552;51.952;7.618;2022-12-01T01:22:39;52.20;;;22.20;;
3083;SDS011;1552;51.952;7.618;2022-12-01T01:25:06;51.03;;;22.30;;
3083;SDS011;1552;51.952;7.618;2022-12-01T01:27:32;48.73;;;19.93;;
3083;SDS011;1552;51.952;7.618;2022-12-01T01:29:59;42.13;;;18.47;;
3083;SDS011;1552;51.952;7.618;2022-12-01T01:32:26;47.67;;;20.67;;
3083;SDS011;1552;51.952;7.618;2022-12-01T01:34:52;45.07;;;19.00;;
3083;SDS011;1552;51.952;7.618;2022-12-01T01:37:20;48.57;;;20.80;;
3083;SDS011;1552;51.952;7.618;2022-12-01T01:39:46;41.07;;;19.03;;
3083;SDS011;1552;51.952;7.618;2022-12-01T01:42:13;38.97;;;18.80;;
3083;SDS011;1552;51.952;7.618;2022-12-01T01:44:46;46.00;;;19.50;;
3083;SDS011;1552;51.952;7.618;2022-12-01T01:47:13;49.90;;;19.77;;
3083;SDS011;1552;51.952;7.618;2022-12-01T01:49:39;51.53;;;20.43;;
3083;SDS011;1552;51.952;7.618;2022-12-01T01:52:06;53.07;;;20.80;;
3083;SDS011;1552;51.952;7.618;2022-12-01T01:54:34;57.23;;;21.37;;
3083;SDS011;1552;51.952;7.618;2022-12-01T01:57:01;55.17;;;21.30;;
3083;SDS011;1552;51.952;7.618;2022-12-01T01:59:30;53.80;;;22.37;;
3083;SDS011;1552;51.952;7.618;2022-12-01T02:01:59;52.83;;;22.37;;
3083;SDS011;1552;51.952;7.618;2022-12-01T02:04:27;49.03;;;21.30;;
3083;SDS011;1552;51.952;7.618;2022-12-01T02:06:53;58.00;;;22.17;;
3083;SDS011;1552;51.952;7.618;2022-12-01T02:09:20;46.60;;;20.20;;
3083;SDS011;1552;51.952;7.618;2022-12-01T02:11:53;47.37;;;21.47;;
3083;SDS011;1552;51.952;7.618;2022-12-01T02:14:32;53.20;;;21.93;;
3083;SDS011;1552;51.952;7.618;2022-12-01T02:17:00;48.43;;;20.70;;
3083;SDS011;1552;51.952;7.618;2022-12-01T02:19:37;45.07;;;19.60;;
3083;SDS011;1552;51.952;7.618;2022-12-01T02:22:09;44.67;;;20.70;;
3083;SDS011;1552;51.952;7.618;2022-12-01T02:24:51;43.97;;;19.53;;
3083;SDS011;1552;51.952;7.618;2022-12-01T02:27:24;41.10;;;18.93;;
3083;SDS011;1552;51.952;7.618;2022-12-01T02:30:04;40.87;;;19.27;;
3083;SDS011;1552;51.952;7.618;2022-12-01T02:32:33;41.67;;;18.77;;
3083;SDS011;1552;51.952;7.618;2022-12-01T02:35:06;43.20;;;19.57;;
3083;SDS011;1552;51.952;7.618;2022-12-01T02:37:38;42.63;;;19.20;;
3083;SDS011;1552;51.952;7.618;2022-12-01T02:40:09;39.50;;;18.10;;
3083;SDS011;1552;51.952;7.618;2022-12-01T02:42:38;45.13;;;18.87;;
3083;SDS011;1552;51.952;7.618;2022-12-01T02:45:22;38.03;;;19.03;;
3083;SDS011;1552;51.952;7.618;2022-12-01T02:47:52;39.97;;;17.27;;
3083;SDS011;1552;51.952;7.618;2022-12-01T02:50:20;38.10;;;17.70;;
3083;SDS011;1552;51.952;7.618;2022-12-01T02:52:47;35.87;;;17.60;;
3083;SDS011;1552;51.952;7.618;2022-12-01T02:55:14;38.33;;;18.20;;
3083;SDS011;1552;51.952;7.618;2022-12-01T02:57:40;37.43;;;19.10;;
3083;SDS011;1552;51.952;7.618;2022-12-01T03:00:07;43.80;;;18.90;;
3083;SDS011;1552;51.952;7.618;2022-12-01T03:02:38;37.07;;;17.77;;
3083;SDS011;1552;51.952;7.618;2022-12-01T03:05:15;41.63;;;19.27;;
3083;SDS011;1552;51.952;7.618;2022-12-01T03:07:46;44.37;;;20.40;;
3083;SDS011;1552;51.952;7.618;2022-12-01T03:10:17;43.20;;;20.57;;
3083;SDS011;1552;51.952;7.618;2022-12-01T03:12:48;43.57;;;19.30;;
3083;SDS011;1552;51.952;7.618;2022-12-01T03:15:16;43.13;;;19.27;;
3083;SDS011;1552;51.952;7.618;2022-12-01T03:17:48;45.90;;;20.00;;
3083;SDS011;1552;51.952;7.618;2022-12-01T03:20:17;45.70;;;20.57;;
3083;SDS011;1552;51.952;7.618;2022-12-01T03:22:47;45.87;;;20.83;;
3083;SDS011;1552;51.952;7.618;2022-12-01T03:25:14;43.70;;;20.53;;
3083;SDS011;1552;51.952;7.618;2022-12-01T03:27:42;40.90;;;19.40;;
3083;SDS011;1552;51.952;7.618;2022-12-01T03:30:10;51.70;;;20.47;;
3083;SDS011;1552;51.952;7.618;2022-12-01T03:32:39;51.70;;;21.10;;
3083;SDS011;1552;51.952;7.618;2022-12-01T03:35:07;43.27;;;20.57;;
3083;SDS011;1552;51.952;7.618;2022-12-01T03:37:38;41.43;;;20.33;;
3083;SDS011;1552;51.952;7.618;2022-12-01T03:40:06;41.43;;;19.63;;
3083;SDS011;1552;51.952;7.618;2022-12-01T03:42:34;48.93;;;21.27;;
3083;SDS011;1552;51.952;7.618;2022-12-01T03:45:03;50.23;;;21.47;;
3083;SDS011;1552;51.952;7.618;2022-12-01T03:47:31;55.10;;;22.90;;
3083;SDS011;1552;51.952;7.618;2022-12-01T03:49:59;55.30;;;22.20;;
3083;SDS011;1552;51.952;7.618;2022-12-01T03:52:28;55.03;;;23.73;;
3083;SDS011;1552;51.952;7.618;2022-12-01T03:55:03;50.17;;;23.17;;
3083;SDS011;1552;51.952;7.618;2022-12-01T03:57:35;49.13;;;21.33;;
3083;SDS011;1552;51.952;7.618;2022-12-01T04:00:04;57.17;;;22.63;;
3083;SDS011;1552;51.952;7.618;2022-12-01T04:02:30;63.37;;;25.53;;
3083;SDS011;1552;51.952;7.618;2022-12-01T04:04:57;62.83;;;24.23;;
3083;SDS011;1552;51.952;7.618;2022-12-01T04:07:23;54.27;;;23.43;;
3083;SDS011;1552;51.952;7.618;2022-12-01T04:09:50;69.33;;;27.30;;
3083;SDS011;1552;51.952;7.618;2022-12-01T04:12:17;50.33;;;22.00;;
3083;SDS011;1552;51.952;7.618;2022-12-01T04:14:54;56.90;;;23.70;;
3083;SDS011;1552;51.952;7.618;2022-12-01T04:17:21;49.70;;;22.97;;
3083;SDS011;1552;51.952;7.618;2022-12-01T04:19:47;66.33;;;24.50;;
3083;SDS011;1552;51.952;7.618;2022-12-01T04:22:13;62.93;;;25.67;;
3083;SDS011;1552;51.952;7.618;2022-12-01T04:24:40;65.40;;;25.20;;
3083;SDS011;1552;51.952;7.618;2022-12-01T04:27:07;63.00;;;25.17;;
3083;SDS011;1552;51.952;7.618;2022-12-01T04:29:35;65.10;;;25.97;;
3083;SDS011;1552;51.952;7.618;2022-12-01T04:32:01;55.27;;;24.70;;
3083;SDS011;1552;51.952;7.618;2022-12-01T04:34:27;65.87;;;26.70;;
3083;SDS011;1552;51.952;7.618;2022-12-01T04:36:53;64.23;;;26.37;;
3083;SDS011;1552;51.952;7.618;2022-12-01T04:39:20;61.63;;;24.97;;
3083;SDS011;1552;51.952;7.618;2022-12-01T04:41:46;64.47;;;26.43;;
3083;SDS011;1552;51.952;7.618;2022-12-01T04:44:13;61.73;;;25.03;;
3083;SDS011;1552;51.952;7.618;2022-12-01T04:46:41;61.17;;;25.60;;
3083;SDS011;1552;51.952;7.618;2022-12-01T04:49:07;65.70;;;24.33;;
3083;SDS011;1552;51.952;7.618;2022-12-01T04:51:33;61.43;;;24.17;;
3083;SDS011;1552;51.952;7.618;2022-12-01T04:54:00;60.93;;;24.17;;
3083;SDS011;1552;51.952;7.618;2022-12-01T04:56:26;61.13;;;24.60;;
3083;SDS011;1552;51.952;7.618;2022-12-01T04:58:52;59.20;;;25.00;;
3083;SDS011;1552;51.952;7.618;2022-12-01T05:01:19;58.07;;;24.20;;
3083;SDS011;1552;51.952;7.618;2022-12-01T05:03:46;67.00;;;25.07;;
3083;SDS011;1552;51.952;7.618;2022-12-01T05:06:15;72.87;;;26.90;;
3083;SDS011;1552;51.952;7.618;2022-12-01T05:08:41;64.77;;;24.37;;
3083;SDS011;1552;51.952;7.618;2022-12-01T05:11:08;73.10;;;28.17;;
3083;SDS011;1552;51.952;7.618;2022-12-01T05:13:36;76.20;;;29.33;;
3083;SDS011;1552;51.952;7.618;2022-12-01T05:16:04;74.33;;;27.87;;
3083;SDS011;1552;51.952;7.618;2022-12-01T05:18:30;71.00;;;29.73;;
3083;SDS011;1552;51.952;7.618;2022-12-01T05:20:58;78.87;;;29.27;;
3083;SDS011;1552;51.952;7.618;2022-12-01T05:23:24;74.37;;;28.87;;
3083;SDS011;1552;51.952;7.618;2022-12-01T05:25:51;87.70;;;32.57;;
3083;SDS011;1552;51.952;7.618;2022-12-01T05:28:17;77.90;;;30.07;;
3083;SDS011;1552;51.952;7.618;2022-12-01T05:30:44;73.60;;;29.07;;
3083;SDS011;1552;51.952;7.618;2022-12-01T05:33:10;69.30;;;27.77;;
3083;SDS011;1552;51.952;7.618;2022-12-01T05:35:36;73.13;;;30.20;;
3083;SDS011;1552;51.952;7.618;2022-12-01T05:38:04;79.37;;;31.20;;
3083;SDS011;1552;51.952;7.618;2022-12-01T05:40:30;79.07;;;32.27;;
3083;SDS011;1552;51.952;7.618;2022-12-01T05:42:57;76.10;;;29.87;;
3083;SDS011;1552;51.952;7.618;2022-12-01T05:45:23;69.00;;;29.27;;
3083;SDS011;1552;51.952;7.618;2022-12-01T05:47:52;74.10;;;26.77;;
3083;SDS011;1552;51.952;7.618;2022-12-01T05:50:19;71.70;;;26.63;;
3083;SDS011;1552;51.952;7.618;2022-12-01T05:52:45;64.67;;;25.63;;
3083;SDS011;1552;51.952;7.618;2022-12-01T05:55:12;65.87;;;25.73;;
3083;SDS011;1552;51.952;7.618;2022-12-01T05:57:39;63.90;;;24.57;;
3083;SDS011;1552;51.952;7.618;2022-12-01T06:00:06;68.33;;;27.57;;
3083;SDS011;1552;51.952;7.618;2022-12-01T06:02:32;86.33;;;30.00;;
3083;SDS011;1552;51.952;7.618;2022-12-01T06:04:59;68.43;;;26.43;;
3083;SDS011;1552;51.952;7.618;2022-12-01T06:07:25;81.23;;;28.20;;
3083;SDS011;1552;51.952;7.618;2022-12-01T06:09:51;72.07;;;27.17;;
3083;SDS011;1552;51.952;7.618;2022-12-01T06:12:19;73.17;;;26.90;;
3083;SDS011;1552;51.952;7.618;2022-12-01T06:14:45;64.10;;;27.23;;
3083;SDS011;1552;51.952;7.618;2022-12-01T06:17:11;64.80;;;26.20;;
3083;SDS011;1552;51.952;7.618;2022-12-01T06:19:38;67.90;;;26.50;;
3083;SDS011;1552;51.952;7.618;2022-12-01T06:22:04;54.90;;;23.57;;
3083;SDS011;1552;51.952;7.618;2022-12-01T06:24:30;66.03;;;27.43;;
3083;SDS011;1552;51.952;7.618;2022-12-01T06:26:56;70.23;;;26.07;;
3083;SDS011;1552;51.952;7.618;2022-12-01T06:29:24;62.90;;;23.73;;
3083;SDS011;1552;51.952;7.618;2022-12-01T06:31:50;54.73;;;23.60;;
3083;SDS011;1552;51.952;7.618;2022-12-01T06:34:17;63.20;;;23.43;;
3083;SDS011;1552;51.952;7.618;2022-12-01T06:36:43;56.33;;;21.80;;
3083;SDS011;1552;51.952;7.618;2022-12-01T06:39:09;50.20;;;20.30;;
3083;SDS011;1552;51.952;7.618;2022-12-01T06:41:36;54.07;;;20.73;;
3083;SDS011;1552;51.952;7.618;2022-12-01T06:44:02;46.97;;;20.73;;
3083;SDS011;1552;51.952;7.618;2022-12-01T06:46:30;55.87;;;22.07;;
3083;SDS011;1552;51.952;7.618;2022-12-01T06:48:56;47.57;;;19.37;;
3083;SDS011;1552;51.952;7.618;2022-12-01T06:51:22;49.07;;;21.47;;
3083;SDS011;1552;51.952;7.618;2022-12-01T06:53:51;43.30;;;18.73;;
3083;SDS011;1552;51.952;7.618;2022-12-01T06:56:17;47.13;;;19.70;;
3083;SDS011;1552;51.952;7.618;2022-12-01T06:58:44;40.53;;;18.87;;
3083;SDS011;1552;51.952;7.618;2022-12-01T07:01:10;40.67;;;17.83;;
3083;SDS011;1552;51.952;7.618;2022-12-01T07:03:38;44.77;;;18.67;;
3083;SDS011;1552;51.952;7.618;2022-12-01T07:06:05;44.40;;;17.93;;
3083;SDS011;1552;51.952;7.618;2022-12-01T07:08:31;46.30;;;18.63;;
3083;SDS011;1552;51.952;7.618;2022-12-01T07:10:58;45.20;;;18.73;;
3083;SDS011;1552;51.952;7.618;2022-12-01T07:13:25;39.53;;;17.20;;
3083;SDS011;1552;51.952;7.618;2022-12-01T07:15:51;38.30;;;17.57;;
3083;SDS011;1552;51.952;7.618;2022-12-01T07:18:17;51.63;;;19.20;;
3083;SDS011;1552;51.952;7.618;2022-12-01T07:20:45;39.90;;;18.23;;
3083;SDS011;1552;51.952;7.618;2022-12-01T07:23:11;42.53;;;19.13;;
3083;SDS011;1552;51.952;7.618;2022-12-01T07:25:37;42.77;;;19.03;;
3083;SDS011;1552;51.952;7.618;2022-12-01T07:28:04;46.13;;;18.87;;
3083;SDS011;1552;51.952;7.618;2022-12-01T07:30:30;52.13;;;20.37;;
3083;SDS011;1552;51.952;7.618;2022-12-01T07:32:58;45.33;;;19.10;;
3083;SDS011;1552;51.952;7.618;2022-12-01T07:35:24;47.97;;;19.33;;
3083;SDS011;1552;51.952;7.618;2022-12-01T07:37:54;52.13;;;20.23;;
3083;SDS011;1552;51.952;7.618;2022-12-01T07:40:20;44.60;;;17.93;;
3083;SDS011;1552;51.952;7.618;2022-12-01T07:42:46;43.87;;;18.17;;
3083;SDS011;1552;51.952;7.618;2022-12-01T07:45:13;46.70;;;19.50;;
3083;SDS011;1552;51.952;7.618;2022-12-01T07:47:39;44.63;;;19.00;;
3083;SDS011;1552;51.952;7.618;2022-12-01T07:50:06;46.23;;;19.37;;
3083;SDS011;1552;51.952;7.618;2022-12-01T07:52:32;36.13;;;17.10;;
3083;SDS011;1552;51.952;7.618;2022-12-01T07:55:00;45.03;;;18.37;;
3083;SDS011;1552;51.952;7.618;2022-12-01T07:57:26;40.30;;;17.60;;
3083;SDS011;1552;51.952;7.618;2022-12-01T07:59:52;44.67;;;18.30;;
3083;SDS011;1552;51.952;7.618;2022-12-01T08:02:22;46.10;;;20.00;;
3083;SDS011;1552;51.952;7.618;2022-12-01T08:04:48;45.43;;;18.70;;
3083;SDS011;1552;51.952;7.618;2022-12-01T08:07:14;45.73;;;18.87;;
3083;SDS011;1552;51.952;7.618;2022-12-01T08:09:40;43.00;;;19.03;;
3083;SDS011;1552;51.952;7.618;2022-12-01T08:12:10;40.73;;;17.37;;
3083;SDS011;1552;51.952;7.618;2022-12-01T08:14:36;40.63;;;18.20;;
3083;SDS011;1552;51.952;7.618;2022-12-01T08:17:02;45.63;;;18.87;;
3083;SDS011;1552;51.952;7.618;2022-12-01T08:19:29;47.37;;;18.83;;
3083;SDS011;1552;51.952;7.618;2022-12-01T08:21:55;43.63;;;19.10;;
3083;SDS011;1552;51.952;7.618;2022-12-01T08:24:21;43.97;;;19.40;;
3083;SDS011;1552;51.952;7.618;2022-12-01T08:26:48;43.93;;;21.23;;
3083;SDS011;1552;51.952;7.618;2022-12-01T08:29:15;47.87;;;21.17;;
3083;SDS011;1552;51.952;7.618;2022-12-01T08:31:42;50.20;;;21.27;;
3083;SDS011;1552;51.952;7.618;2022-12-01T08:34:08;53.17;;;23.37;;
3083;SDS011;1552;51.952;7.618;2022-12-01T08:36:34;51.23;;;23.27;;
3083;SDS011;1552;51.952;7.618;2022-12-01T08:39:01;53.30;;;23.40;;
3083;SDS011;1552;51.952;7.618;2022-12-01T08:41:27;52.23;;;23.50;;
3083;SDS011;1552;51.952;7.618;2022-12-01T08:43:55;56.00;;;25.73;;
3083;SDS011;1552;51.952;7.618;2022-12-01T08:46:25;58.80;;;26.37;;
3083;SDS011;1552;51.952;7.618;2022-12-01T08:48:52;55.93;;;25.87;;
3083;SDS011;1552;51.952;7.618;2022-12-01T08:51:21;53.33;;;24.97;;
3083;SDS011;1552;51.952;7.618;2022-12-01T08:53:48;62.67;;;26.83;;
3083;SDS011;1552;51.952;7.618;2022-12-01T08:56:15;59.97;;;26.50;;
3083;SDS011;1552;51.952;7.618;2022-12-01T08:58:42;64.17;;;28.20;;
3083;SDS011;1552;51.952;7.618;2022-12-01T09:01:09;62.80;;;27.93;;
3083;SDS011;1552;51.952;7.618;2022-12-01T09:03:37;66.73;;;29.37;;
3083;SDS011;1552;51.952;7.618;2022-12-01T09:06:04;67.77;;;29.03;;
3083;SDS011;1552;51.952;7.618;2022-12-01T09:08:31;66.47;;;29.63;;
3083;SDS011;1552;51.952;7.618;2022-12-01T09:11:00;63.27;;;28.13;;
3083;SDS011;1552;51.952;7.618;2022-12-01T09:13:26;66.70;;;28.93;;
3083;SDS011;1552;51.952;7.618;2022-12-01T09:15:54;66.70;;;30.17;;
3083;SDS011;1552;51.952;7.618;2022-12-01T09:18:20;64.07;;;28.87;;
3083;SDS011;1552;51.952;7.618;2022-12-01T09:20:48;70.60;;;31.07;;
3083;SDS011;1552;51.952;7.618;2022-12-01T09:23:14;67.23;;;29.60;;
3083;SDS011;1552;51.952;7.618;2022-12-01T09:25:40;68.53;;;31.90;;
3083;SDS011;1552;51.952;7.618;2022-12-01T09:28:06;73.63;;;34.50;;
3083;SDS011;1552;51.952;7.618;2022-12-01T09:30:33;72.67;;;31.60;;
3083;SDS011;1552;51.952;7.618;2022-12-01T09:32:59;64.83;;;31.20;;
3083;SDS011;1552;51.952;7.618;2022-12-01T09:35:25;62.80;;;29.77;;
3083;SDS011;1552;51.952;7.618;2022-12-01T09:37:53;69.10;;;31.20;;
3083;SDS011;1552;51.952;7.618;2022-12-01T09:40:19;72.73;;;31.40;;
3083;SDS011;1552;51.952;7.618;2022-12-01T09:42:46;66.37;;;32.60;;
3083;SDS011;1552;51.952;7.618;2022-12-01T09:45:15;65.97;;;30.27;;
3083;SDS011;1552;51.952;7.618;2022-12-01T09:47:45;65.97;;;31.10;;
3083;SDS011;1552;51.952;7.618;2022-12-01T09:50:12;71.43;;;34.40;;
3083;SDS011;1552;51.952;7.618;2022-12-01T09:52:40;80.13;;;34.67;;
3083;SDS011;1552;51.952;7.618;2022-12-01T09:55:10;75.47;;;34.07;;
3083;SDS011;1552;51.952;7.618;2022-12-01T09:57:38;71.03;;;32.70;;
3083;SDS011;1552;51.952;7.618;2022-12-01T10:00:05;69.40;;;32.70;;
3083;SDS011;1552;51.952;7.618;2022-12-01T10:02:34;74.63;;;33.20;;
3083;SDS011;1552;51.952;7.618;2022-12-01T10:05:02;74.97;;;34.30;;
3083;SDS011;1552;51.952;7.618;2022-12-01T10:07:29;83.27;;;36.90;;
3083;SDS011;1552;51.952;7.618;2022-12-01T10:09:57;89.97;;;36.67;;
3083;SDS011;1552;51.952;7.618;2022-12-01T10:12:28;84.67;;;35.40;;
3083;SDS011;1552;51.952;7.618;2022-12-01T10:14:57;85.57;;;36.57;;
3083;SDS011;1552;51.952;7.618;2022-12-01T10:17:27;92.03;;;39.03;;
3083;SDS011;1552;51.952;7.618;2022-12-01T10:19:57;88.33;;;38.80;;
3083;SDS011;1552;51.952;7.618;2022-12-01T10:22:28;87.60;;;37.40;;
3083;SDS011;1552;51.952;7.618;2022-12-01T10:25:01;81.10;;;36.40;;
3083;SDS011;1552;51.952;7.618;2022-12-01T10:27:34;90.50;;;38.23;;
3083;SDS011;1552;51.952;7.618;2022-12-01T10:30:04;79.07;;;35.37;;
3083;SDS011;1552;51.952;7.618;2022-12-01T10:32:34;85.27;;;37.00;;
3083;SDS011;1552;51.952;7.618;2022-12-01T10:35:04;92.57;;;39.63;;
3083;SDS011;1552;51.952;7.618;2022-12-01T10:37:31;79.90;;;35.73;;
3083;SDS011;1552;51.952;7.618;2022-12-01T10:39:57;85.67;;;37.83;;
3083;SDS011;1552;51.952;7.618;2022-12-01T10:42:25;84.63;;;36.70;;
3083;SDS011;1552;51.952;7.618;2022-12-01T10:44:54;84.00;;;37.90;;
3083;SDS011;1552;51.952;7.618;2022-12-01T10:47:22;82.67;;;36.87;;
3083;SDS011;1552;51.952;7.618;2022-12-01T10:49:48;84.33;;;37.67;;
3083;SDS011;1552;51.952;7.618;2022-12-01T10:55:22;79.07;;;35.17;;
3083;SDS011;1552;51.952;7.618;2022-12-01T10:57:50;77.43;;;34.63;;
3083;SDS011;1552;51.952;7.618;2022-12-01T11:02:47;87.50;;;38.33;;
3083;SDS011;1552;51.952;7.618;2022-12-01T11:05:18;73.00;;;35.00;;
3083;SDS011;1552;51.952;7.618;2022-12-01T11:07:46;80.87;;;36.90;;
3083;SDS011;1552;51.952;7.618;2022-12-01T11:10:14;77.60;;;36.57;;
3083;SDS011;1552;51.952;7.618;2022-12-01T11:12:41;79.77;;;35.90;;
3083;SDS011;1552;51.952;7.618;2022-12-01T11:15:16;84.00;;;37.03;;
3083;SDS011;1552;51.952;7.618;2022-12-01T11:17:43;82.97;;;37.37;;
3083;SDS011;1552;51.952;7.618;2022-12-01T11:20:24;84.00;;;37.30;;
3083;SDS011;1552;51.952;7.618;2022-12-01T11:22:51;79.03;;;37.50;;
3083;SDS011;1552;51.952;7.618;2022-12-01T11:25:18;87.27;;;38.87;;
3083;SDS011;1552;51.952;7.618;2022-12-01T11:27:46;84.33;;;38.00;;
3083;SDS011;1552;51.952;7.618;2022-12-01T11:30:18;82.80;;;38.17;;
3083;SDS011;1552;51.952;7.618;2022-12-01T11:32:49;82.37;;;39.30;;
3083;SDS011;1552;51.952;7.618;2022-12-01T11:35:17;88.37;;;40.97;;
3083;SDS011;1552;51.952;7.618;2022-12-01T11:37:46;79.00;;;37.13;;
3083;SDS011;1552;51.952;7.618;2022-12-01T11:40:15;86.17;;;38.13;;
3083;SDS011;1552;51.952;7.618;2022-12-01T11:42:45;91.50;;;39.87;;
3083;SDS011;1552;51.952;7.618;2022-12-01T11:45:17;91.27;;;40.83;;
3083;SDS011;1552;51.952;7.618;2022-12-01T11:47:56;90.77;;;38.67;;
3083;SDS011;1552;51.952;7.618;2022-12-01T11:50:23;90.37;;;40.03;;
3083;SDS011;1552;51.952;7.618;2022-12-01T11:52:51;91.60;;;39.73;;
3083;SDS011;1552;51.952;7.618;2022-12-01T11:55:19;90.50;;;39.33;;
3083;SDS011;1552;51.952;7.618;2022-12-01T11:57:46;85.27;;;39.30;;
3083;SDS011;1552;51.952;7.618;2022-12-01T12:00:13;83.43;;;39.67;;
3083;SDS011;1552;51.952;7.618;2022-12-01T12:02:41;88.27;;;37.90;;
3083;SDS011;1552;51.952;7.618;2022-12-01T12:05:16;85.93;;;37.20;;
3083;SDS011;1552;51.952;7.618;2022-12-01T12:07:47;77.47;;;35.50;;
3083;SDS011;1552;51.952;7.618;2022-12-01T12:10:22;83.33;;;38.57;;
3083;SDS011;1552;51.952;7.618;2022-12-01T12:12:55;81.57;;;36.93;;
3083;SDS011;1552;51.952;7.618;2022-12-01T12:15:24;69.47;;;33.90;;
3083;SDS011;1552;51.952;7.618;2022-12-01T12:17:59;75.00;;;36.13;;
3083;SDS011;1552;51.952;7.618;2022-12-01T12:20:35;75.67;;;34.13;;
3083;SDS011;1552;51.952;7.618;2022-12-01T12:23:11;74.47;;;36.40;;
3083;SDS011;1552;51.952;7.618;2022-12-01T12:25:46;74.03;;;34.53;;
3083;SDS011;1552;51.952;7.618;2022-12-01T12:28:18;78.13;;;35.63;;
3083;SDS011;1552;51.952;7.618;2022-12-01T12:30:50;72.80;;;35.43;;
3083;SDS011;1552;51.952;7.618;2022-12-01T12:33:31;68.10;;;34.27;;
3083;SDS011;1552;51.952;7.618;2022-12-01T12:36:01;67.73;;;32.83;;
3083;SDS011;1552;51.952;7.618;2022-12-01T12:38:34;71.90;;;34.37;;
3083;SDS011;1552;51.952;7.618;2022-12-01T12:41:08;71.13;;;33.43;;
3083;SDS011;1552;51.952;7.618;2022-12-01T12:43:37;68.33;;;33.37;;
3083;SDS011;1552;51.952;7.618;2022-12-01T12:46:07;67.93;;;32.50;;
3083;SDS011;1552;51.952;7.618;2022-12-01T12:48:45;70.47;;;32.33;;
3083;SDS011;1552;51.952;7.618;2022-12-01T12:51:16;70.17;;;34.43;;
3083;SDS011;1552;51.952;7.618;2022-12-01T12:53:45;71.00;;;32.77;;
3083;SDS011;1552;51.952;7.618;2022-12-01T12:56:16;67.83;;;32.67;;
3083;SDS011;1552;51.952;7.618;2022-12-01T12:58:48;69.17;;;32.03;;
3083;SDS011;1552;51.952;7.618;2022-12-01T13:01:20;68.60;;;33.03;;
3083;SDS011;1552;51.952;7.618;2022-12-01T13:03:48;73.00;;;33.77;;
3083;SDS011;1552;51.952;7.618;2022-12-01T13:06:17;77.23;;;35.00;;
3083;SDS011;1552;51.952;7.618;2022-12-01T13:08:45;76.07;;;35.80;;
3083;SDS011;1552;51.952;7.618;2022-12-01T13:11:16;78.47;;;37.63;;
3083;SDS011;1552;51.952;7.618;2022-12-01T13:13:45;73.87;;;34.50;;
3083;SDS011;1552;51.952;7.618;2022-12-01T13:16:16;69.70;;;32.13;;
3083;SDS011;1552;51.952;7.618;2022-12-01T13:18:44;74.63;;;35.50;;
3083;SDS011;1552;51.952;7.618;2022-12-01T13:21:12;69.83;;;34.70;;
3083;SDS011;1552;51.952;7.618;2022-12-01T13:23:40;77.60;;;34.23;;
3083;SDS011;1552;51.952;7.618;2022-12-01T13:26:07;75.33;;;35.17;;
3083;SDS011;1552;51.952;7.618;2022-12-01T13:28:37;71.60;;;33.70;;
3083;SDS011;1552;51.952;7.618;2022-12-01T13:31:07;74.23;;;35.70;;
3083;SDS011;1552;51.952;7.618;2022-12-01T13:33:35;70.67;;;34.63;;
3083;SDS011;1552;51.952;7.618;2022-12-01T13:36:01;75.70;;;35.53;;
3083;SDS011;1552;51.952;7.618;2022-12-01T13:38:32;73.23;;;35.50;;
3083;SDS011;1552;51.952;7.618;2022-12-01T13:41:09;74.80;;;35.13;;
3083;SDS011;1552;51.952;7.618;2022-12-01T13:43:51;71.43;;;33.53;;
3083;SDS011;1552;51.952;7.618;2022-12-01T13:46:19;74.30;;;34.57;;
3083;SDS011;1552;51.952;7.618;2022-12-01T13:48:56;71.63;;;34.20;;
3083;SDS011;1552;51.952;7.618;2022-12-01T13:51:22;77.80;;;36.67;;
3083;SDS011;1552;51.952;7.618;2022-12-01T13:53:54;77.03;;;36.00;;
3083;SDS011;1552;51.952;7.618;2022-12-01T13:56:37;80.77;;;37.13;;
3083;SDS011;1552;51.952;7.618;2022-12-01T13:59:35;80.13;;;37.23;;
3083;SDS011;1552;51.952;7.618;2022-12-01T14:02:13;80.83;;;37.60;;
3083;SDS011;1552;51.952;7.618;2022-12-01T14:04:40;77.97;;;36.93;;
3083;SDS011;1552;51.952;7.618;2022-12-01T14:09:55;75.43;;;34.50;;
3083;SDS011;1552;51.952;7.618;2022-12-01T14:12:23;70.37;;;32.63;;
3083;SDS011;1552;51.952;7.618;2022-12-01T14:14:51;77.33;;;35.17;;
3083;SDS011;1552;51.952;7.618;2022-12-01T14:17:26;74.70;;;35.83;;
3083;SDS011;1552;51.952;7.618;2022-12-01T14:19:53;77.47;;;35.10;;
3083;SDS011;1552;51.952;7.618;2022-12-01T14:22:30;79.37;;;36.30;;
3083;SDS011;1552;51.952;7.618;2022-12-01T14:24:57;79.93;;;37.33;;
3083;SDS011;1552;51.952;7.618;2022-12-01T14:27:31;81.93;;;38.77;;
3083;SDS011;1552;51.952;7.618;2022-12-01T14:29:58;72.50;;;36.23;;
3083;SDS011;1552;51.952;7.618;2022-12-01T14:32:46;81.90;;;36.37;;
3083;SDS011;1552;51.952;7.618;2022-12-01T14:35:13;75.33;;;34.30;;
3083;SDS011;1552;51.952;7.618;2022-12-01T14:37:44;77.33;;;36.07;;
3083;SDS011;1552;51.952;7.618;2022-12-01T14:40:22;74.17;;;35.17;;
3083;SDS011;1552;51.952;7.618;2022-12-01T14:42:50;77.83;;;35.37;;
3083;SDS011;1552;51.952;7.618;2022-12-01T14:45:38;76.97;;;34.67;;
3083;SDS011;1552;51.952;7.618;2022-12-01T14:48:08;88.33;;;38.60;;
3083;SDS011;1552;51.952;7.618;2022-12-01T14:50:36;79.73;;;37.33;;
3083;SDS011;1552;51.952;7.618;2022-12-01T14:53:05;79.63;;;37.00;;
3083;SDS011;1552;51.952;7.618;2022-12-01T14:55:34;76.27;;;35.87;;
3083;SDS011;1552;51.952;7.618;2022-12-01T14:58:01;81.60;;;36.53;;
3083;SDS011;1552;51.952;7.618;2022-12-01T15:00:30;87.37;;;38.27;;
3083;SDS011;1552;51.952;7.618;2022-12-01T15:02:57;83.27;;;36.13;;
3083;SDS011;1552;51.952;7.618;2022-12-01T15:05:26;85.10;;;36.97;;